createdAt,value
2023-04-20T05:24:23.811Z,961.77
2023-04-20T05:25:02.171Z,961.70
2023-04-20T05:26:02.149Z,961.70
2023-04-20T05:27:02.127Z,961.73
2023-04-20T05:28:02.120Z,961.74
2023-04-20T05:29:02.111Z,961.69
2023-04-20T05:30:13.186Z,961.71
2023-04-20T05:31:02.114Z,961.69
2023-04-20T05:32:02.168Z,961.72
2023-04-20T05:33:02.112Z,961.73
2023-04-20T05:34:02.088Z,961.75
2023-04-20T05:35:02.032Z,961.76
2023-04-20T05:36:02.023Z,961.73
2023-04-20T05:37:02.046Z,961.73
2023-04-20T05:38:02.020Z,961.69
2023-04-20T05:39:02.006Z,961.71
2023-04-20T05:40:02.000Z,961.70
2023-04-20T05:41:01.991Z,961.71
2023-04-20T05:42:02.002Z,961.66
2023-04-20T05:43:01.956Z,961.69
2023-04-20T05:44:01.947Z,961.65
2023-04-20T05:45:01.952Z,961.67
2023-04-20T05:46:01.960Z,961.66
2023-04-20T05:47:01.924Z,961.69
2023-04-20T05:48:02.030Z,961.64
2023-04-20T05:49:01.910Z,961.62
2023-04-20T05:50:01.898Z,961.63
2023-04-20T05:51:01.887Z,961.63
2023-04-20T05:52:01.874Z,961.61
2023-04-20T05:53:01.856Z,961.62
2023-04-20T05:54:01.841Z,961.66
2023-04-20T05:55:01.831Z,961.63
2023-04-20T05:56:01.808Z,961.62
2023-04-20T05:57:01.821Z,961.63
2023-04-20T05:58:01.786Z,961.62
2023-04-20T05:59:01.785Z,961.59
2023-04-20T06:00:01.768Z,961.63
2023-04-20T06:01:01.760Z,961.62
2023-04-20T06:02:01.912Z,961.63
2023-04-20T06:03:02.101Z,961.63
2023-04-20T06:04:01.875Z,961.61
2023-04-20T06:05:01.781Z,961.62
2023-04-20T06:06:01.727Z,961.60
2023-04-20T06:07:01.702Z,961.60
2023-04-20T06:08:01.698Z,961.58
2023-04-20T06:09:01.673Z,961.62
2023-04-20T06:10:01.703Z,961.59
2023-04-20T06:11:01.661Z,961.56
2023-04-20T06:12:01.676Z,961.60
2023-04-20T06:13:01.645Z,961.57
2023-04-20T06:14:01.622Z,961.54
2023-04-20T06:15:01.649Z,961.58
2023-04-20T06:16:01.642Z,961.57
2023-04-20T06:17:01.594Z,961.56
2023-04-20T06:18:01.827Z,961.61
2023-04-20T06:19:01.592Z,961.57
2023-04-20T06:20:01.561Z,961.60
2023-04-20T06:21:01.564Z,961.53
2023-04-20T06:22:01.580Z,961.58
2023-04-20T06:23:01.541Z,961.61
2023-04-20T06:24:01.518Z,961.54
2023-04-20T06:25:01.507Z,961.54
2023-04-20T06:26:01.488Z,961.56
2023-04-20T06:27:01.475Z,961.51
2023-04-20T06:28:01.460Z,961.48
2023-04-20T06:29:01.469Z,961.49
2023-04-20T06:30:01.454Z,961.44
2023-04-20T06:31:01.577Z,961.47
2023-04-20T06:32:01.447Z,961.47
2023-04-20T06:33:01.564Z,961.46
2023-04-20T06:34:01.434Z,961.46
2023-04-20T06:35:01.386Z,961.48
2023-04-20T06:36:01.399Z,961.43
2023-04-20T06:37:01.364Z,961.40
2023-04-20T06:38:01.368Z,961.47
2023-04-20T06:39:01.333Z,961.41
2023-04-20T06:40:01.329Z,961.45
2023-04-20T06:41:01.335Z,961.46
2023-04-20T06:42:01.318Z,961.46
2023-04-20T06:43:01.314Z,961.42
2023-04-20T06:44:01.292Z,961.42
2023-04-20T06:45:01.280Z,961.48
2023-04-20T06:46:01.273Z,961.42
2023-04-20T06:47:01.323Z,961.39
2023-04-20T06:48:01.297Z,961.37
2023-04-20T06:49:01.232Z,961.39
2023-04-20T06:50:01.227Z,961.39
2023-04-20T06:51:01.213Z,961.34
2023-04-20T06:52:01.205Z,961.28
2023-04-20T06:53:01.194Z,961.29
2023-04-20T06:54:01.185Z,961.28
2023-04-20T06:55:01.200Z,961.31
2023-04-20T06:56:01.168Z,961.29
2023-04-20T06:57:01.133Z,961.28
2023-04-20T06:58:01.139Z,961.29
2023-04-20T06:59:01.114Z,961.32
2023-04-20T07:00:01.122Z,961.34
2023-04-20T07:01:01.087Z,961.33
2023-04-20T07:02:01.280Z,961.37
2023-04-20T07:03:01.222Z,961.36
2023-04-20T07:04:01.170Z,961.30
2023-04-20T07:05:01.185Z,961.33
2023-04-20T07:06:01.027Z,961.33
2023-04-20T07:07:01.073Z,961.31
2023-04-20T07:08:01.021Z,961.33
2023-04-20T07:09:01.026Z,961.31
2023-04-20T07:10:01.011Z,961.25
2023-04-20T07:11:00.981Z,961.28
2023-04-20T07:12:01.001Z,961.21
2023-04-20T07:13:01.020Z,961.21
2023-04-20T07:14:00.959Z,961.23
2023-04-20T07:15:00.977Z,961.20
2023-04-20T07:16:00.985Z,961.24
2023-04-20T07:17:00.944Z,961.22
2023-04-20T07:18:00.964Z,961.26
2023-04-20T07:19:00.892Z,961.24
2023-04-20T07:20:00.884Z,961.21
2023-04-20T07:21:00.898Z,961.22
2023-04-20T07:22:00.869Z,961.22
2023-04-20T07:23:00.868Z,961.18
2023-04-20T07:24:00.882Z,961.21
2023-04-20T07:25:00.861Z,961.19
2023-04-20T07:26:00.817Z,961.18
2023-04-20T07:27:00.899Z,961.21
2023-04-20T07:28:00.855Z,961.22
2023-04-20T07:29:00.803Z,961.21
2023-04-20T07:30:00.785Z,961.21
2023-04-20T07:31:00.772Z,961.19
2023-04-20T07:32:00.783Z,961.17
2023-04-20T07:33:00.818Z,961.17
2023-04-20T07:34:00.728Z,961.18
2023-04-20T07:35:00.773Z,961.20
2023-04-20T07:36:00.702Z,961.18
2023-04-20T07:37:00.723Z,961.18
2023-04-20T07:38:00.723Z,961.17
2023-04-20T07:39:00.682Z,961.17
2023-04-20T07:40:00.657Z,961.17
2023-04-20T07:41:00.661Z,961.20
2023-04-20T07:42:00.664Z,961.17
2023-04-20T07:43:00.658Z,961.13
2023-04-20T07:44:00.772Z,961.16
2023-04-20T07:45:00.625Z,961.12
2023-04-20T07:46:00.673Z,961.11
2023-04-20T07:47:00.960Z,961.08
2023-04-20T07:48:00.658Z,961.11
2023-04-20T07:49:00.583Z,961.08
2023-04-20T07:50:00.553Z,961.11
2023-04-20T07:51:00.555Z,961.15
2023-04-20T07:52:12.987Z,961.09
2023-04-20T07:53:00.535Z,961.11
2023-04-20T07:54:00.510Z,961.15
2023-04-20T07:55:00.521Z,961.16
2023-04-20T07:56:00.537Z,961.16
2023-04-20T07:57:00.492Z,961.13
2023-04-20T07:58:00.498Z,961.15
2023-04-20T07:59:00.604Z,961.11
2023-04-20T08:00:00.524Z,961.14
2023-04-20T08:01:00.461Z,961.12
2023-04-20T08:02:00.552Z,961.13
2023-04-20T08:03:00.568Z,961.12
2023-04-20T08:04:00.621Z,961.13
2023-04-20T08:05:00.685Z,961.08
2023-04-20T08:06:00.489Z,960.99
2023-04-20T08:07:00.368Z,960.98
2023-04-20T08:08:00.366Z,960.97
2023-04-20T08:09:00.369Z,960.97
2023-04-20T08:10:00.365Z,960.95
2023-04-20T08:11:00.396Z,961.00
2023-04-20T08:12:00.354Z,961.01
2023-04-20T08:13:00.338Z,960.98
2023-04-20T08:14:00.429Z,961.00
2023-04-20T08:15:00.337Z,960.99
2023-04-20T08:16:00.592Z,960.96
2023-04-20T08:17:00.287Z,960.96
2023-04-20T08:18:00.390Z,960.92
2023-04-20T08:19:00.246Z,960.95
2023-04-20T08:20:00.233Z,960.94
2023-04-20T08:21:00.232Z,960.92
2023-04-20T08:22:01.375Z,960.93
2023-04-20T08:23:00.203Z,960.92
2023-04-20T08:24:00.429Z,960.92
2023-04-20T08:25:00.188Z,960.87
2023-04-20T08:26:00.199Z,960.88
2023-04-20T08:27:00.163Z,960.89
2023-04-20T08:28:00.313Z,960.88
2023-04-20T08:29:00.162Z,960.89
2023-04-20T08:30:00.125Z,960.89
2023-04-20T08:31:00.192Z,960.89
2023-04-20T08:32:00.188Z,960.89
2023-04-20T08:33:00.168Z,960.89
2023-04-20T08:34:00.098Z,960.84
2023-04-20T08:35:00.088Z,960.81
2023-04-20T08:36:00.073Z,960.80
2023-04-20T08:37:00.070Z,960.81
2023-04-20T08:38:00.081Z,960.80
2023-04-20T08:39:00.036Z,960.84
2023-04-20T08:40:00.062Z,960.85
2023-04-20T08:41:00.016Z,960.85
2023-04-20T08:42:00.008Z,960.89
2023-04-20T08:42:59.986Z,960.89
2023-04-20T08:43:59.965Z,960.87
2023-04-20T08:44:59.964Z,960.91
2023-04-20T08:45:59.975Z,960.89
2023-04-20T08:47:00.077Z,960.89
2023-04-20T08:47:59.940Z,960.92
2023-04-20T08:48:59.941Z,960.89
2023-04-20T08:49:59.899Z,960.91
2023-04-20T08:50:59.887Z,960.88
2023-04-20T08:51:59.924Z,960.85
2023-04-20T08:52:59.868Z,960.83
2023-04-20T08:53:59.858Z,960.82
2023-04-20T08:54:59.844Z,960.84
2023-04-20T08:55:59.886Z,960.82
2023-04-20T08:56:59.819Z,960.84
2023-04-20T08:57:59.825Z,960.79
2023-04-20T08:58:59.810Z,960.74
2023-04-20T08:59:59.779Z,960.78
2023-04-20T09:00:59.773Z,960.79
2023-04-20T09:01:59.915Z,960.77
2023-04-20T09:02:59.892Z,960.82
2023-04-20T09:03:59.959Z,960.83
2023-04-20T09:04:59.769Z,960.84
2023-04-20T09:05:59.727Z,960.82
2023-04-20T09:06:59.724Z,960.85
2023-04-20T09:07:59.825Z,960.85
2023-04-20T09:08:59.700Z,960.82
2023-04-20T09:09:59.817Z,960.84
2023-04-20T09:10:59.704Z,960.85
2023-04-20T09:11:59.645Z,960.85
2023-04-20T09:12:59.691Z,960.82
2023-04-20T09:13:59.664Z,960.83
2023-04-20T09:14:59.622Z,960.79
2023-04-20T09:15:59.624Z,960.81
2023-04-20T09:16:59.615Z,960.88
2023-04-20T09:17:59.606Z,960.89
2023-04-20T09:18:59.606Z,960.87
2023-04-20T09:19:59.576Z,960.92
2023-04-20T09:20:59.581Z,960.84
2023-04-20T09:21:59.553Z,960.88
2023-04-20T09:22:59.553Z,960.88
2023-04-20T09:23:59.521Z,960.86
2023-04-20T09:24:59.521Z,960.90
2023-04-20T09:25:59.539Z,960.90
2023-04-20T09:26:59.506Z,960.88
2023-04-20T09:27:59.508Z,960.83
2023-04-20T09:28:59.609Z,960.84
2023-04-20T09:29:59.471Z,960.82
2023-04-20T09:30:59.453Z,960.79
2023-04-20T09:31:59.452Z,960.81
2023-04-20T09:32:59.452Z,960.82
2023-04-20T09:33:59.415Z,960.79
2023-04-20T09:34:59.427Z,960.80
2023-04-20T09:35:59.383Z,960.77
2023-04-20T09:36:59.383Z,960.74
2023-04-20T09:37:59.392Z,960.70
2023-04-20T09:38:59.356Z,960.73
2023-04-20T09:39:59.349Z,960.71
2023-04-20T09:40:59.352Z,960.70
2023-04-20T09:41:59.333Z,960.70
2023-04-20T09:42:59.337Z,960.67
2023-04-20T09:43:59.299Z,960.67
2023-04-20T09:44:59.300Z,960.70
2023-04-20T09:45:59.401Z,960.64
2023-04-20T09:46:59.299Z,960.67
2023-04-20T09:47:59.285Z,960.64
2023-04-20T09:48:59.282Z,960.61
2023-04-20T09:50:04.448Z,960.58
2023-04-20T09:50:59.237Z,960.57
2023-04-20T09:51:59.206Z,960.59
2023-04-20T09:52:59.202Z,960.53
2023-04-20T09:53:59.181Z,960.46
2023-04-20T09:54:59.204Z,960.54
2023-04-20T09:55:59.187Z,960.51
2023-04-20T09:56:59.148Z,960.49
2023-04-20T09:57:59.169Z,960.44
2023-04-20T09:58:59.142Z,960.46
2023-04-20T09:59:59.138Z,960.44
2023-04-20T10:00:59.129Z,960.47
2023-04-20T10:01:59.245Z,960.43
2023-04-20T10:02:59.209Z,960.43
2023-04-20T10:03:59.428Z,960.44
2023-04-20T10:04:59.068Z,960.46
2023-04-20T10:05:59.075Z,960.41
2023-04-20T10:06:59.073Z,960.39
2023-04-20T10:07:59.036Z,960.43
2023-04-20T10:08:59.039Z,960.39
2023-04-20T10:09:59.027Z,960.36
2023-04-20T10:10:59.002Z,960.35
2023-04-20T10:11:59.657Z,960.31
2023-04-20T10:12:58.972Z,960.32
2023-04-20T10:13:58.976Z,960.30
2023-04-20T10:14:58.968Z,960.30
2023-04-20T10:15:59.023Z,960.35
2023-04-20T10:16:59.041Z,960.27
2023-04-20T10:17:59.078Z,960.24
2023-04-20T10:18:58.947Z,960.24
2023-04-20T10:19:58.921Z,960.23
2023-04-20T10:20:58.899Z,960.24
2023-04-20T10:21:58.906Z,960.25
2023-04-20T10:22:58.869Z,960.21
2023-04-20T10:23:58.901Z,960.29
2023-04-20T10:24:58.863Z,960.27
2023-04-20T10:25:58.844Z,960.26
2023-04-20T10:26:58.830Z,960.26
2023-04-20T10:27:58.833Z,960.28
2023-04-20T10:28:58.811Z,960.25
2023-04-20T10:29:58.981Z,960.26
2023-04-20T10:30:58.870Z,960.23
2023-04-20T10:31:58.773Z,960.23
2023-04-20T10:32:58.850Z,960.22
2023-04-20T10:33:58.778Z,960.18
2023-04-20T10:34:58.789Z,960.23
2023-04-20T10:35:58.728Z,960.24
2023-04-20T10:36:58.704Z,960.24
2023-04-20T10:37:58.736Z,960.23
2023-04-20T10:38:58.704Z,960.27
2023-04-20T10:39:58.708Z,960.28
2023-04-20T10:40:58.677Z,960.26
2023-04-20T10:41:58.677Z,960.25
2023-04-20T10:42:58.642Z,960.22
2023-04-20T10:43:58.676Z,960.25
2023-04-20T10:44:58.646Z,960.27
2023-04-20T10:45:58.676Z,960.25
2023-04-20T10:46:58.618Z,960.27
2023-04-20T10:47:58.657Z,960.29
2023-04-20T10:48:58.632Z,960.27
2023-04-20T10:49:58.575Z,960.29
2023-04-20T10:50:58.557Z,960.33
2023-04-20T10:51:58.558Z,960.29
2023-04-20T10:52:58.684Z,960.31
2023-04-20T10:53:58.532Z,960.32
2023-04-20T10:54:58.566Z,960.32
2023-04-20T10:55:58.539Z,960.27
2023-04-20T10:56:58.492Z,960.31
2023-04-20T10:57:58.497Z,960.28
2023-04-20T10:58:59.461Z,960.29
2023-04-20T10:59:58.492Z,960.26
2023-04-20T11:00:58.501Z,960.30
2023-04-20T11:01:58.577Z,960.29
2023-04-20T11:02:58.587Z,960.28
2023-04-20T11:03:58.452Z,960.20
2023-04-20T11:04:58.459Z,960.23
2023-04-20T11:05:58.422Z,960.25
2023-04-20T11:06:58.387Z,960.22
2023-04-20T11:07:58.398Z,960.24
2023-04-20T11:08:58.359Z,960.26
2023-04-20T11:09:58.376Z,960.20
2023-04-20T11:10:58.353Z,960.19
2023-04-20T11:11:58.365Z,960.21
2023-04-20T11:12:58.325Z,960.16
2023-04-20T11:13:58.318Z,960.14
2023-04-20T11:14:58.308Z,960.13
2023-04-20T11:15:58.352Z,960.06
2023-04-20T11:16:58.376Z,960.07
2023-04-20T11:17:58.326Z,960.04
2023-04-20T11:18:58.246Z,960.03
2023-04-20T11:19:58.252Z,960.12
2023-04-20T11:20:58.218Z,960.12
2023-04-20T11:21:58.225Z,960.11
2023-04-20T11:22:58.204Z,960.16
2023-04-20T11:23:58.205Z,960.11
2023-04-20T11:24:58.344Z,960.10
2023-04-20T11:25:58.202Z,960.10
2023-04-20T11:26:58.226Z,960.08
2023-04-20T11:27:58.186Z,960.08
2023-04-20T11:28:58.143Z,960.07
2023-04-20T11:29:58.143Z,960.07
2023-04-20T11:30:58.141Z,960.10
2023-04-20T11:31:58.311Z,960.10
2023-04-20T11:32:58.251Z,960.06
2023-04-20T11:33:58.090Z,960.07
2023-04-20T11:35:05.957Z,960.02
2023-04-20T11:35:58.092Z,960.00
2023-04-20T11:36:58.066Z,959.93
2023-04-20T11:37:58.046Z,959.97
2023-04-20T11:38:58.056Z,959.91
2023-04-20T11:39:58.011Z,959.91
2023-04-20T11:40:58.017Z,959.89
2023-04-20T11:41:57.998Z,959.84
2023-04-20T11:42:57.989Z,959.86
2023-04-20T11:43:57.963Z,959.84
2023-04-20T11:44:58.185Z,959.79
2023-04-20T11:45:58.015Z,959.87
2023-04-20T11:46:57.935Z,959.82
2023-04-20T11:47:57.996Z,959.82
2023-04-20T11:48:57.923Z,959.84
2023-04-20T11:49:57.928Z,959.85
2023-04-20T11:50:57.905Z,959.87
2023-04-20T11:51:57.897Z,959.82
2023-04-20T11:52:57.877Z,959.88
2023-04-20T11:53:57.878Z,959.84
2023-04-20T11:54:57.857Z,959.86
2023-04-20T11:55:57.840Z,959.92
2023-04-20T11:56:57.843Z,959.87
2023-04-20T11:57:57.824Z,959.89
2023-04-20T11:58:57.816Z,959.93
2023-04-20T11:59:57.820Z,959.93
2023-04-20T12:00:57.789Z,959.92
2023-04-20T12:01:57.828Z,959.92
2023-04-20T12:02:57.872Z,959.92
2023-04-20T12:03:58.007Z,959.90
2023-04-20T12:04:57.897Z,959.94
2023-04-20T12:05:57.763Z,959.87
2023-04-20T12:06:57.706Z,959.89
2023-04-20T12:07:57.719Z,959.82
2023-04-20T12:08:57.745Z,959.87
2023-04-20T12:09:57.686Z,959.84
2023-04-20T12:10:58.654Z,959.85
2023-04-20T12:11:57.662Z,959.81
2023-04-20T12:12:57.658Z,959.85
2023-04-20T12:13:57.654Z,959.86
2023-04-20T12:14:57.630Z,959.93
2023-04-20T12:15:57.649Z,959.92
2023-04-20T12:16:58.664Z,959.86
2023-04-20T12:17:57.629Z,959.89
2023-04-20T12:18:57.585Z,959.89
2023-04-20T12:19:57.617Z,959.84
2023-04-20T12:20:57.572Z,959.88
2023-04-20T12:21:57.574Z,959.88
2023-04-20T12:22:58.948Z,959.88
2023-04-20T12:23:57.540Z,959.89
2023-04-20T12:24:57.528Z,959.82
2023-04-20T12:25:57.517Z,959.84
2023-04-20T12:26:57.524Z,959.81
2023-04-20T12:27:57.524Z,959.80
2023-04-20T12:28:57.497Z,959.79
2023-04-20T12:29:57.452Z,959.79
2023-04-20T12:30:57.489Z,959.75
2023-04-20T12:31:57.542Z,959.77
2023-04-20T12:32:57.482Z,959.73
2023-04-20T12:33:57.412Z,959.75
2023-04-20T12:34:57.428Z,959.71
2023-04-20T12:35:57.420Z,959.67
2023-04-20T12:36:57.406Z,959.70
2023-04-20T12:37:57.409Z,959.75
2023-04-20T12:38:57.392Z,959.75
2023-04-20T12:39:57.372Z,959.71
2023-04-20T12:40:57.333Z,959.73
2023-04-20T12:41:57.337Z,959.70
2023-04-20T12:42:57.329Z,959.70
2023-04-20T12:43:57.314Z,959.71
2023-04-20T12:44:57.316Z,959.76
2023-04-20T12:45:57.318Z,959.82
2023-04-20T12:46:57.350Z,959.85
2023-04-20T12:47:58.484Z,959.83
2023-04-20T12:48:57.264Z,959.86
2023-04-20T12:49:57.232Z,959.86
2023-04-20T12:50:57.269Z,959.88
2023-04-20T12:51:57.225Z,959.83
2023-04-20T12:52:57.223Z,959.88
2023-04-20T12:53:57.221Z,959.85
2023-04-20T12:54:57.192Z,959.88
2023-04-20T12:56:01.045Z,959.84
2023-04-20T12:56:57.155Z,959.81
2023-04-20T12:57:57.163Z,959.80
2023-04-20T12:58:57.152Z,959.82
2023-04-20T12:59:57.128Z,959.81
2023-04-20T13:00:57.169Z,959.82
2023-04-20T13:01:57.142Z,959.79
2023-04-20T13:02:57.311Z,959.83
2023-04-20T13:03:57.339Z,959.75
2023-04-20T13:04:57.066Z,959.79
2023-04-20T13:05:57.071Z,959.73
2023-04-20T13:06:57.037Z,959.71
2023-04-20T13:07:57.060Z,959.75
2023-04-20T13:08:57.064Z,959.72
2023-04-20T13:09:57.016Z,959.73
2023-04-20T13:10:57.019Z,959.68
2023-04-20T13:11:57.017Z,959.64
2023-04-20T13:12:57.001Z,959.66
2023-04-20T13:13:56.997Z,959.67
2023-04-20T13:14:56.952Z,959.69
2023-04-20T13:15:57.004Z,959.73
2023-04-20T13:16:57.018Z,959.71
2023-04-20T13:17:56.980Z,959.75
2023-04-20T13:18:56.994Z,959.71
2023-04-20T13:19:56.903Z,959.76
2023-04-20T13:20:56.923Z,959.81
2023-04-20T13:21:56.901Z,959.77
2023-04-20T13:22:58.152Z,959.81
2023-04-20T13:23:57.118Z,959.77
2023-04-20T13:24:56.863Z,959.82
2023-04-20T13:25:56.866Z,959.77
2023-04-20T13:26:56.880Z,959.76
2023-04-20T13:27:56.833Z,959.73
2023-04-20T13:28:56.799Z,959.74
2023-04-20T13:29:56.848Z,959.74
2023-04-20T13:30:56.773Z,959.74
2023-04-20T13:31:56.809Z,959.74
2023-04-20T13:32:56.825Z,959.77
2023-04-20T13:33:56.763Z,959.81
2023-04-20T13:34:56.753Z,959.80
2023-04-20T13:35:56.727Z,959.81
2023-04-20T13:36:56.745Z,959.79
2023-04-20T13:37:56.737Z,959.81
2023-04-20T13:38:56.703Z,959.82
2023-04-20T13:39:56.700Z,959.79
2023-04-20T13:40:56.700Z,959.81
2023-04-20T13:41:56.660Z,959.83
2023-04-20T13:42:56.669Z,959.82
2023-04-20T13:43:56.648Z,959.83
2023-04-20T13:44:56.645Z,959.80
2023-04-20T13:45:56.651Z,959.80
2023-04-20T13:46:56.628Z,959.80
2023-04-20T13:47:56.626Z,959.79
2023-04-20T13:48:56.616Z,959.73
2023-04-20T13:49:56.606Z,959.79
2023-04-20T13:50:56.567Z,959.78
2023-04-20T13:51:56.577Z,959.72
2023-04-20T13:52:56.564Z,959.74
2023-04-20T13:53:56.547Z,959.70
2023-04-20T13:54:56.528Z,959.71
2023-04-20T13:55:56.525Z,959.67
2023-04-20T13:56:56.501Z,959.70
2023-04-20T13:57:56.497Z,959.66
2023-04-20T13:58:56.486Z,959.66
2023-04-20T13:59:56.512Z,959.66
2023-04-20T14:00:56.522Z,959.64
2023-04-20T14:01:56.458Z,959.72
2023-04-20T14:02:56.491Z,959.69
2023-04-20T14:03:56.514Z,959.73
2023-04-20T14:04:56.484Z,959.71
2023-04-20T14:05:56.414Z,959.71
2023-04-20T14:06:56.405Z,959.71
2023-04-20T14:07:56.404Z,959.73
2023-04-20T14:08:56.384Z,959.74
2023-04-20T14:09:56.623Z,959.75
2023-04-20T14:10:56.364Z,959.76
2023-04-20T14:11:57.160Z,959.68
2023-04-20T14:12:56.324Z,959.73
2023-04-20T14:13:56.318Z,959.71
2023-04-20T14:14:56.309Z,959.78
2023-04-20T14:15:56.333Z,959.74
2023-04-20T14:16:56.294Z,959.76
2023-04-20T14:17:56.315Z,959.73
2023-04-20T14:18:56.259Z,959.73
2023-04-20T14:19:56.243Z,959.72
2023-04-20T14:20:56.238Z,959.67
2023-04-20T14:21:56.229Z,959.68
2023-04-20T14:22:56.215Z,959.63
2023-04-20T14:23:56.223Z,959.67
2023-04-20T14:24:56.181Z,959.67
2023-04-20T14:25:56.187Z,959.66
2023-04-20T14:26:56.185Z,959.58
2023-04-20T14:27:56.175Z,959.60
2023-04-20T14:28:56.169Z,959.60
2023-04-20T14:29:56.171Z,959.62
2023-04-20T14:30:56.170Z,959.57
2023-04-20T14:31:56.201Z,959.69
2023-04-20T14:32:56.215Z,959.73
2023-04-20T14:33:56.110Z,959.70
2023-04-20T14:34:56.146Z,959.72
2023-04-20T14:35:56.227Z,959.72
2023-04-20T14:36:56.093Z,959.73
2023-04-20T14:37:56.032Z,959.77
2023-04-20T14:38:56.047Z,959.75
2023-04-20T14:39:56.069Z,959.78
2023-04-20T14:40:56.034Z,959.81
2023-04-20T14:41:55.992Z,959.79
2023-04-20T14:42:56.005Z,959.78
2023-04-20T14:43:55.995Z,959.79
2023-04-20T14:44:55.980Z,959.78
2023-04-20T14:45:55.972Z,959.75
2023-04-20T14:46:56.043Z,959.78
2023-04-20T14:47:55.992Z,959.82
2023-04-20T14:48:55.939Z,959.78
2023-04-20T14:49:55.918Z,959.90
2023-04-20T14:50:55.940Z,959.94
2023-04-20T14:51:55.902Z,960.00
2023-04-20T14:52:55.885Z,959.99
2023-04-20T14:53:55.875Z,960.01
2023-04-20T14:54:55.864Z,960.08
2023-04-20T14:55:55.839Z,960.05
2023-04-20T14:56:55.864Z,960.04
2023-04-20T14:57:55.820Z,960.00
2023-04-20T14:58:55.845Z,960.10
2023-04-20T14:59:55.822Z,960.08
2023-04-20T15:00:55.785Z,960.07
2023-04-20T15:02:02.738Z,960.14
2023-04-20T15:02:55.951Z,960.04
2023-04-20T15:03:56.071Z,960.09
2023-04-20T15:04:55.995Z,960.05
2023-04-20T15:05:55.926Z,960.01
2023-04-20T15:06:55.737Z,959.98
2023-04-20T15:07:55.768Z,959.93
2023-04-20T15:08:55.717Z,959.92
2023-04-20T15:09:55.703Z,959.95
2023-04-20T15:10:55.734Z,959.93
2023-04-20T15:11:55.677Z,959.95
2023-04-20T15:12:55.663Z,959.92
2023-04-20T15:13:55.647Z,959.91
2023-04-20T15:14:55.676Z,959.89
2023-04-20T15:15:55.661Z,959.92
2023-04-20T15:16:55.663Z,959.89
2023-04-20T15:17:55.677Z,959.95
2023-04-20T15:18:55.600Z,959.93
2023-04-20T15:19:55.576Z,959.94
2023-04-20T15:20:55.579Z,959.94
2023-04-20T15:21:55.563Z,959.93
2023-04-20T15:22:55.576Z,959.93
2023-04-20T15:23:55.532Z,959.92
2023-04-20T15:24:55.561Z,959.92
2023-04-20T15:25:55.505Z,959.91
2023-04-20T15:26:55.520Z,959.91
2023-04-20T15:27:55.501Z,959.88
2023-04-20T15:28:55.503Z,959.92
2023-04-20T15:29:55.467Z,959.87
2023-04-20T15:30:55.544Z,959.90
2023-04-20T15:31:55.528Z,959.93
2023-04-20T15:32:55.569Z,959.90
2023-04-20T15:33:55.428Z,959.95
2023-04-20T15:34:55.476Z,959.94
2023-04-20T15:35:55.412Z,959.90
2023-04-20T15:36:55.409Z,959.88
2023-04-20T15:37:55.404Z,959.86
2023-04-20T15:38:57.572Z,959.83
2023-04-20T15:39:55.378Z,959.86
2023-04-20T15:40:55.380Z,959.80
2023-04-20T15:41:55.328Z,959.84
2023-04-20T15:42:55.418Z,959.86
2023-04-20T15:43:55.325Z,959.84
2023-04-20T15:44:55.323Z,959.86
2023-04-20T15:45:55.366Z,959.81
2023-04-20T15:46:55.347Z,959.82
2023-04-20T15:47:55.309Z,959.82
2023-04-20T15:48:55.252Z,959.84
2023-04-20T15:49:55.266Z,959.80
2023-04-20T15:50:55.245Z,959.80
2023-04-20T15:51:55.222Z,959.83
2023-04-20T15:52:55.231Z,959.84
2023-04-20T15:53:55.265Z,959.81
2023-04-20T15:54:55.198Z,959.89
2023-04-20T15:55:55.207Z,959.88
2023-04-20T15:56:55.234Z,959.87
2023-04-20T15:57:55.165Z,959.93
2023-04-20T15:58:55.153Z,959.95
2023-04-20T15:59:55.140Z,959.91
2023-04-20T16:00:55.184Z,959.97
2023-04-20T16:01:55.266Z,960.01
2023-04-20T16:02:55.280Z,960.02
2023-04-20T16:03:55.341Z,960.08
2023-04-20T16:04:55.263Z,960.13
2023-04-20T16:05:55.109Z,960.11
2023-04-20T16:06:55.086Z,960.12
2023-04-20T16:07:55.084Z,960.10
2023-04-20T16:08:55.051Z,960.09
2023-04-20T16:09:55.036Z,960.06
2023-04-20T16:10:55.052Z,960.05
2023-04-20T16:11:55.017Z,960.03
2023-04-20T16:12:55.002Z,960.07
2023-04-20T16:13:54.970Z,960.05
2023-04-20T16:14:54.972Z,960.10
2023-04-20T16:15:55.001Z,960.10
2023-04-20T16:16:54.959Z,960.06
2023-04-20T16:17:55.020Z,960.11
2023-04-20T16:18:54.929Z,960.13
2023-04-20T16:19:54.911Z,960.13
2023-04-20T16:20:54.901Z,960.20
2023-04-20T16:21:54.908Z,960.21
2023-04-20T16:22:54.904Z,960.21
2023-04-20T16:23:54.870Z,960.26
2023-04-20T16:24:54.873Z,960.30
2023-04-20T16:25:54.852Z,960.28
2023-04-20T16:26:54.851Z,960.28
2023-04-20T16:27:54.856Z,960.23
2023-04-20T16:28:54.830Z,960.18
2023-04-20T16:29:54.832Z,960.15
2023-04-20T16:30:54.918Z,960.12
2023-04-20T16:31:54.879Z,960.09
2023-04-20T16:32:54.883Z,960.11
2023-04-20T16:33:54.764Z,960.10
2023-04-20T16:34:54.770Z,960.16
2023-04-20T16:35:54.756Z,960.21
2023-04-20T16:36:54.742Z,960.25
2023-04-20T16:37:54.734Z,960.17
2023-04-20T16:38:54.776Z,960.21
2023-04-20T16:39:54.714Z,960.24
2023-04-20T16:40:54.707Z,960.22
2023-04-20T16:41:54.727Z,960.15
2023-04-20T16:42:54.703Z,960.17
2023-04-20T16:43:54.656Z,960.15
2023-04-20T16:44:54.653Z,960.21
2023-04-20T16:45:54.672Z,960.18
2023-04-20T16:46:54.664Z,960.23
2023-04-20T16:47:54.709Z,960.27
2023-04-20T16:48:54.641Z,960.26
2023-04-20T16:49:54.594Z,960.27
2023-04-20T16:50:54.590Z,960.24
2023-04-20T16:51:54.606Z,960.21
2023-04-20T16:52:54.594Z,960.19
2023-04-20T16:53:54.550Z,960.21
2023-04-20T16:54:54.560Z,960.22
2023-04-20T16:55:54.526Z,960.18
2023-04-20T16:56:54.504Z,960.16
2023-04-20T16:57:54.532Z,960.12
2023-04-20T16:58:54.540Z,960.03
2023-04-20T16:59:54.481Z,960.01
2023-04-20T17:00:54.526Z,960.00
2023-04-20T17:01:54.493Z,960.03
2023-04-20T17:02:54.624Z,960.11
2023-04-20T17:03:54.636Z,960.10
2023-04-20T17:04:54.455Z,960.16
2023-04-20T17:05:54.422Z,960.11
2023-04-20T17:06:54.491Z,960.11
2023-04-20T17:07:54.406Z,960.10
2023-04-20T17:08:54.461Z,960.10
2023-04-20T17:09:54.364Z,960.13
2023-04-20T17:10:54.431Z,960.13
2023-04-20T17:11:54.338Z,960.16
2023-04-20T17:12:54.327Z,960.21
2023-04-20T17:13:54.373Z,960.20
2023-04-20T17:14:54.328Z,960.26
2023-04-20T17:15:54.306Z,960.21
2023-04-20T17:16:54.470Z,960.26
2023-04-20T17:17:54.359Z,960.22
2023-04-20T17:18:54.264Z,960.22
2023-04-20T17:19:54.244Z,960.24
2023-04-20T17:20:54.266Z,960.20
2023-04-20T17:21:54.231Z,960.15
2023-04-20T17:22:54.228Z,960.12
2023-04-20T17:23:54.240Z,960.12
2023-04-20T17:24:54.233Z,960.19
2023-04-20T17:25:54.199Z,960.17
2023-04-20T17:26:54.184Z,960.23
2023-04-20T17:27:54.190Z,960.23
2023-04-20T17:28:54.187Z,960.32
2023-04-20T17:29:54.174Z,960.30
2023-04-20T17:30:54.174Z,960.28
2023-04-20T17:31:54.186Z,960.28
2023-04-20T17:32:54.137Z,960.25
2023-04-20T17:33:54.103Z,960.26
2023-04-20T17:34:54.159Z,960.21
2023-04-20T17:35:54.086Z,960.26
2023-04-20T17:36:54.074Z,960.26
2023-04-20T17:37:54.091Z,960.38
2023-04-20T17:38:54.070Z,960.32
2023-04-20T17:39:54.053Z,960.28
2023-04-20T17:40:54.044Z,960.27
2023-04-20T17:41:54.038Z,960.28
2023-04-20T17:42:54.036Z,960.29
2023-04-20T17:43:54.022Z,960.27
2023-04-20T17:44:54.015Z,960.27
2023-04-20T17:45:54.011Z,960.29
2023-04-20T17:46:53.971Z,960.30
2023-04-20T17:47:54.060Z,960.37
2023-04-20T17:48:53.950Z,960.36
2023-04-20T17:49:53.964Z,960.45
2023-04-20T17:50:53.910Z,960.43
2023-04-20T17:51:53.904Z,960.42